Terminal Aerodrome Forecast
Issued by NWS

Home | Current Version | Previous Version | Text Only | Print | Product List | Glossary On
Versions: 1 2 3 4 5 6 7 8 9 10 11 12 13 14 15 16 17 18
000
FTUS43 KDTX 291134
TAFMBS
TAF
KMBS 291134Z 2912/3012 17005KT P6SM OVC080
      TEMPO 2912/2916 6SM -SHRA SCT050 OVC060
     FM292100 16005KT P6SM BKN050 OVC120
     FM300900 VRB02KT 3SM BR SCT040=

USA.gov is the U.S. government's official web portal to all federal, state and local government web resources and services.